sensor_id;sensor_type;location;lat;lon;timestamp;pressure;altitude;pressure_sealevel;temperature;humidity
5905;BME280;2978;42.012;24.880;2023-03-04T00:02:04;98866.63;;;8.01;93.38
5905;BME280;2978;42.012;24.880;2023-03-04T00:04:29;98874.41;;;7.87;93.68
5905;BME280;2978;42.012;24.880;2023-03-04T00:06:54;98868.38;;;7.69;94.59
5905;BME280;2978;42.012;24.880;2023-03-04T00:09:20;98852.59;;;7.76;95.34
5905;BME280;2978;42.012;24.880;2023-03-04T00:11:45;98864.78;;;8.07;94.30
5905;BME280;2978;42.012;24.880;2023-03-04T00:14:11;98857.94;;;8.09;93.48
5905;BME280;2978;42.012;24.880;2023-03-04T00:16:36;98852.47;;;8.09;92.65
5905;BME280;2978;42.012;24.880;2023-03-04T00:19:02;98845.31;;;7.60;93.87
5905;BME280;2978;42.012;24.880;2023-03-04T00:21:28;98847.97;;;7.55;94.72
5905;BME280;2978;42.012;24.880;2023-03-04T00:23:54;98846.44;;;7.64;95.54
5905;BME280;2978;42.012;24.880;2023-03-04T00:26:19;98844.84;;;7.68;95.25
5905;BME280;2978;42.012;24.880;2023-03-04T00:28:45;98837.88;;;7.77;95.35
5905;BME280;2978;42.012;24.880;2023-03-04T00:31:10;98845.63;;;7.85;94.63
5905;BME280;2978;42.012;24.880;2023-03-04T00:33:36;98846.25;;;7.92;94.11
5905;BME280;2978;42.012;24.880;2023-03-04T00:36:03;98847.34;;;7.91;93.40
5905;BME280;2978;42.012;24.880;2023-03-04T00:38:28;98854.41;;;7.87;93.09
5905;BME280;2978;42.012;24.880;2023-03-04T00:40:54;98854.28;;;7.77;93.78
5905;BME280;2978;42.012;24.880;2023-03-04T00:43:20;98849.06;;;7.75;93.49
5905;BME280;2978;42.012;24.880;2023-03-04T00:45:45;98850.59;;;7.66;93.66
5905;BME280;2978;42.012;24.880;2023-03-04T00:48:11;98851.28;;;7.78;93.66
5905;BME280;2978;42.012;24.880;2023-03-04T00:50:36;98851.91;;;7.85;93.71
5905;BME280;2978;42.012;24.880;2023-03-04T00:53:02;98845.25;;;7.98;92.54
5905;BME280;2978;42.012;24.880;2023-03-04T00:55:28;98855.06;;;8.21;91.74
5905;BME280;2978;42.012;24.880;2023-03-04T00:57:54;98856.22;;;8.25;90.60
5905;BME280;2978;42.012;24.880;2023-03-04T01:00:20;98869.50;;;8.16;91.20
5905;BME280;2978;42.012;24.880;2023-03-04T01:02:45;98859.56;;;8.05;91.73
5905;BME280;2978;42.012;24.880;2023-03-04T01:05:11;98857.81;;;7.99;92.18
5905;BME280;2978;42.012;24.880;2023-03-04T01:07:36;98854.56;;;8.02;92.20
5905;BME280;2978;42.012;24.880;2023-03-04T01:10:02;98857.13;;;8.09;92.53
5905;BME280;2978;42.012;24.880;2023-03-04T01:12:27;98848.19;;;8.18;91.97
5905;BME280;2978;42.012;24.880;2023-03-04T01:14:53;98854.69;;;8.34;91.46
5905;BME280;2978;42.012;24.880;2023-03-04T01:17:18;98851.88;;;8.29;91.10
5905;BME280;2978;42.012;24.880;2023-03-04T01:19:44;98858.06;;;8.19;91.32
5905;BME280;2978;42.012;24.880;2023-03-04T01:22:10;98851.34;;;8.05;92.06
5905;BME280;2978;42.012;24.880;2023-03-04T01:24:36;98844.50;;;7.81;92.93
5905;BME280;2978;42.012;24.880;2023-03-04T01:27:02;98850.78;;;7.81;94.06
5905;BME280;2978;42.012;24.880;2023-03-04T01:29:27;98849.50;;;7.89;95.17
5905;BME280;2978;42.012;24.880;2023-03-04T01:31:53;98838.22;;;8.07;94.30
5905;BME280;2978;42.012;24.880;2023-03-04T01:34:18;98845.56;;;8.28;92.80
5905;BME280;2978;42.012;24.880;2023-03-04T01:36:44;98845.28;;;8.51;91.41
5905;BME280;2978;42.012;24.880;2023-03-04T01:39:09;98842.56;;;8.56;91.15
5905;BME280;2978;42.012;24.880;2023-03-04T01:41:35;98855.19;;;8.57;90.08
5905;BME280;2978;42.012;24.880;2023-03-04T01:44:01;98845.97;;;8.37;90.80
5905;BME280;2978;42.012;24.880;2023-03-04T01:46:27;98835.63;;;8.22;91.22
5905;BME280;2978;42.012;24.880;2023-03-04T01:48:53;98829.75;;;8.09;91.54
5905;BME280;2978;42.012;24.880;2023-03-04T01:51:20;98833.13;;;8.16;92.66
5905;BME280;2978;42.012;24.880;2023-03-04T01:53:47;98837.66;;;8.32;92.89
5905;BME280;2978;42.012;24.880;2023-03-04T01:56:34;98819.44;;;8.42;92.47
5905;BME280;2978;42.012;24.880;2023-03-04T02:01:45;98823.88;;;8.48;91.21
5905;BME280;2978;42.012;24.880;2023-03-04T02:04:12;98835.56;;;8.39;91.56
5905;BME280;2978;42.012;24.880;2023-03-04T02:06:39;98822.13;;;8.37;91.21
5905;BME280;2978;42.012;24.880;2023-03-04T02:09:05;98825.69;;;8.38;91.57
5905;BME280;2978;42.012;24.880;2023-03-04T02:11:32;98809.97;;;8.28;91.53
5905;BME280;2978;42.012;24.880;2023-03-04T02:13:59;98811.25;;;8.47;91.10
5905;BME280;2978;42.012;24.880;2023-03-04T02:16:25;98814.72;;;8.64;90.55
5905;BME280;2978;42.012;24.880;2023-03-04T02:18:51;98812.59;;;8.71;89.64
5905;BME280;2978;42.012;24.880;2023-03-04T02:21:22;98814.22;;;8.72;89.31
5905;BME280;2978;42.012;24.880;2023-03-04T02:26:29;98808.59;;;8.52;89.62
5905;BME280;2978;42.012;24.880;2023-03-04T02:28:57;98804.88;;;8.37;90.46
5905;BME280;2978;42.012;24.880;2023-03-04T02:31:38;98801.31;;;8.15;90.66
5905;BME280;2978;42.012;24.880;2023-03-04T02:36:36;98802.78;;;8.22;91.51
5905;BME280;2978;42.012;24.880;2023-03-04T02:39:19;98785.22;;;8.18;90.95
5905;BME280;2978;42.012;24.880;2023-03-04T02:41:47;98791.34;;;8.25;90.38
5905;BME280;2978;42.012;24.880;2023-03-04T02:44:24;98785.47;;;8.17;90.99
5905;BME280;2978;42.012;24.880;2023-03-04T02:46:50;98778.50;;;8.04;91.50
5905;BME280;2978;42.012;24.880;2023-03-04T02:49:16;98786.97;;;8.02;91.66
5905;BME280;2978;42.012;24.880;2023-03-04T02:51:42;98780.66;;;7.75;92.45
5905;BME280;2978;42.012;24.880;2023-03-04T02:54:19;98783.50;;;7.64;92.63
5905;BME280;2978;42.012;24.880;2023-03-04T02:56:50;98774.56;;;7.68;93.69
5905;BME280;2978;42.012;24.880;2023-03-04T02:59:16;98778.72;;;7.76;92.62
5905;BME280;2978;42.012;24.880;2023-03-04T03:01:42;98779.50;;;7.71;92.44
5905;BME280;2978;42.012;24.880;2023-03-04T03:04:07;98797.44;;;7.62;93.16
5905;BME280;2978;42.012;24.880;2023-03-04T03:06:33;98798.03;;;7.64;92.92
5905;BME280;2978;42.012;24.880;2023-03-04T03:08:58;98790.53;;;7.55;93.16
5905;BME280;2978;42.012;24.880;2023-03-04T03:11:24;98795.25;;;7.59;93.17
5905;BME280;2978;42.012;24.880;2023-03-04T03:13:49;98803.81;;;7.68;93.05
5905;BME280;2978;42.012;24.880;2023-03-04T03:16:15;98799.75;;;7.70;92.59
5905;BME280;2978;42.012;24.880;2023-03-04T03:18:40;98799.25;;;7.73;92.30
5905;BME280;2978;42.012;24.880;2023-03-04T03:21:06;98807.19;;;7.75;92.12
5905;BME280;2978;42.012;24.880;2023-03-04T03:23:31;98804.56;;;7.85;91.53
5905;BME280;2978;42.012;24.880;2023-03-04T03:25:56;98807.88;;;7.87;91.40
5905;BME280;2978;42.012;24.880;2023-03-04T03:28:22;98811.25;;;7.94;90.83
5905;BME280;2978;42.012;24.880;2023-03-04T03:30:47;98807.72;;;7.98;91.40
5905;BME280;2978;42.012;24.880;2023-03-04T03:33:13;98797.34;;;8.00;91.07
5905;BME280;2978;42.012;24.880;2023-03-04T03:35:38;98799.81;;;8.02;90.04
5905;BME280;2978;42.012;24.880;2023-03-04T03:38:03;98790.59;;;8.08;90.11
5905;BME280;2978;42.012;24.880;2023-03-04T03:40:29;98789.44;;;8.04;89.60
5905;BME280;2978;42.012;24.880;2023-03-04T03:42:55;98801.28;;;8.10;90.01
5905;BME280;2978;42.012;24.880;2023-03-04T03:45:20;98798.22;;;8.06;89.97
5905;BME280;2978;42.012;24.880;2023-03-04T03:47:46;98801.81;;;8.07;90.14
5905;BME280;2978;42.012;24.880;2023-03-04T03:50:11;98801.50;;;8.03;89.85
5905;BME280;2978;42.012;24.880;2023-03-04T03:52:37;98812.88;;;7.95;91.53
5905;BME280;2978;42.012;24.880;2023-03-04T03:55:03;98802.44;;;7.92;92.47
5905;BME280;2978;42.012;24.880;2023-03-04T03:57:28;98809.78;;;7.86;93.25
5905;BME280;2978;42.012;24.880;2023-03-04T03:59:54;98800.88;;;7.74;93.70
5905;BME280;2978;42.012;24.880;2023-03-04T04:02:20;98802.56;;;7.75;94.02
5905;BME280;2978;42.012;24.880;2023-03-04T04:04:46;98808.72;;;7.66;94.28
5905;BME280;2978;42.012;24.880;2023-03-04T04:07:12;98803.75;;;7.63;94.97
5905;BME280;2978;42.012;24.880;2023-03-04T04:09:37;98803.81;;;7.68;94.49
5905;BME280;2978;42.012;24.880;2023-03-04T04:12:04;98800.56;;;7.71;94.03
5905;BME280;2978;42.012;24.880;2023-03-04T04:14:30;98804.34;;;7.65;93.97
5905;BME280;2978;42.012;24.880;2023-03-04T04:16:55;98792.34;;;7.71;93.39
5905;BME280;2978;42.012;24.880;2023-03-04T04:19:21;98809.47;;;7.83;93.73
5905;BME280;2978;42.012;24.880;2023-03-04T04:21:46;98814.44;;;7.86;93.44
5905;BME280;2978;42.012;24.880;2023-03-04T04:24:12;98808.97;;;7.86;93.25
5905;BME280;2978;42.012;24.880;2023-03-04T04:26:38;98816.59;;;7.84;92.07
5905;BME280;2978;42.012;24.880;2023-03-04T04:29:03;98815.34;;;7.70;92.05
5905;BME280;2978;42.012;24.880;2023-03-04T04:31:29;98823.28;;;7.71;93.10
5905;BME280;2978;42.012;24.880;2023-03-04T04:33:54;98823.59;;;7.75;92.44
5905;BME280;2978;42.012;24.880;2023-03-04T04:36:19;98832.38;;;7.77;92.15
5905;BME280;2978;42.012;24.880;2023-03-04T04:38:45;98828.56;;;7.78;92.50
5905;BME280;2978;42.012;24.880;2023-03-04T04:41:30;98820.88;;;7.75;92.97
5905;BME280;2978;42.012;24.880;2023-03-04T04:43:58;98831.25;;;7.73;92.71
5905;BME280;2978;42.012;24.880;2023-03-04T04:46:24;98831.03;;;7.79;92.86
5905;BME280;2978;42.012;24.880;2023-03-04T04:48:50;98821.06;;;7.68;92.94
5905;BME280;2978;42.012;24.880;2023-03-04T04:51:15;98822.53;;;7.54;93.16
5905;BME280;2978;42.012;24.880;2023-03-04T04:53:41;98830.94;;;7.48;93.68
5905;BME280;2978;42.012;24.880;2023-03-04T04:56:17;98829.19;;;7.42;93.34
5905;BME280;2978;42.012;24.880;2023-03-04T04:58:42;98827.59;;;7.24;94.35
5905;BME280;2978;42.012;24.880;2023-03-04T05:01:08;98829.91;;;7.16;94.86
5905;BME280;2978;42.012;24.880;2023-03-04T05:03:35;98830.91;;;7.10;94.97
5905;BME280;2978;42.012;24.880;2023-03-04T05:06:01;98826.28;;;7.10;94.71
5905;BME280;2978;42.012;24.880;2023-03-04T05:08:27;98833.31;;;7.06;95.16
5905;BME280;2978;42.012;24.880;2023-03-04T05:10:52;98833.44;;;6.95;94.82
5905;BME280;2978;42.012;24.880;2023-03-04T05:13:17;98830.53;;;6.84;95.02
5905;BME280;2978;42.012;24.880;2023-03-04T05:15:44;98840.47;;;6.74;95.91
5905;BME280;2978;42.012;24.880;2023-03-04T05:18:09;98839.13;;;6.76;97.35
5905;BME280;2978;42.012;24.880;2023-03-04T05:20:35;98838.59;;;6.74;96.94
5905;BME280;2978;42.012;24.880;2023-03-04T05:23:00;98832.63;;;6.77;97.42
5905;BME280;2978;42.012;24.880;2023-03-04T05:25:26;98853.63;;;7.10;97.11
5905;BME280;2978;42.012;24.880;2023-03-04T05:27:51;98846.47;;;7.26;96.24
5905;BME280;2978;42.012;24.880;2023-03-04T05:30:17;98848.47;;;7.30;95.80
5905;BME280;2978;42.012;24.880;2023-03-04T05:32:42;98843.00;;;7.30;94.79
5905;BME280;2978;42.012;24.880;2023-03-04T05:35:08;98854.25;;;7.34;94.94
5905;BME280;2978;42.012;24.880;2023-03-04T05:37:33;98869.91;;;7.38;95.08
5905;BME280;2978;42.012;24.880;2023-03-04T05:39:59;98866.31;;;7.38;94.70
5905;BME280;2978;42.012;24.880;2023-03-04T05:42:24;98859.78;;;7.39;95.25
5905;BME280;2978;42.012;24.880;2023-03-04T05:44:50;98873.53;;;7.44;95.48
5905;BME280;2978;42.012;24.880;2023-03-04T05:47:15;98870.41;;;7.57;94.47
5905;BME280;2978;42.012;24.880;2023-03-04T05:49:41;98865.72;;;7.52;94.19
5905;BME280;2978;42.012;24.880;2023-03-04T05:52:06;98859.84;;;7.44;94.30
5905;BME280;2978;42.012;24.880;2023-03-04T05:54:32;98866.97;;;7.45;94.90
5905;BME280;2978;42.012;24.880;2023-03-04T05:56:57;98867.56;;;7.47;95.35
5905;BME280;2978;42.012;24.880;2023-03-04T05:59:23;98861.50;;;7.45;94.83
5905;BME280;2978;42.012;24.880;2023-03-04T06:01:48;98848.97;;;7.49;95.72
5905;BME280;2978;42.012;24.880;2023-03-04T06:04:14;98860.13;;;7.64;95.68
5905;BME280;2978;42.012;24.880;2023-03-04T06:06:39;98864.59;;;7.70;95.70
5905;BME280;2978;42.012;24.880;2023-03-04T06:09:05;98866.88;;;7.78;95.19
5905;BME280;2978;42.012;24.880;2023-03-04T06:11:30;98869.66;;;7.83;94.49
5905;BME280;2978;42.012;24.880;2023-03-04T06:13:55;98868.53;;;7.79;94.52
5905;BME280;2978;42.012;24.880;2023-03-04T06:16:21;98866.56;;;7.74;94.16
5905;BME280;2978;42.012;24.880;2023-03-04T06:18:46;98863.06;;;7.79;94.15
5905;BME280;2978;42.012;24.880;2023-03-04T06:21:12;98864.72;;;7.80;95.02
5905;BME280;2978;42.012;24.880;2023-03-04T06:23:37;98869.81;;;7.93;94.56
5905;BME280;2978;42.012;24.880;2023-03-04T06:26:03;98873.41;;;7.98;94.06
5905;BME280;2978;42.012;24.880;2023-03-04T06:28:29;98874.78;;;7.96;93.63
5905;BME280;2978;42.012;24.880;2023-03-04T06:30:55;98877.88;;;8.05;93.72
5905;BME280;2978;42.012;24.880;2023-03-04T06:33:22;98878.72;;;8.05;93.58
5905;BME280;2978;42.012;24.880;2023-03-04T06:35:47;98889.09;;;8.03;92.45
5905;BME280;2978;42.012;24.880;2023-03-04T06:38:13;98880.81;;;7.98;92.51
5905;BME280;2978;42.012;24.880;2023-03-04T06:40:38;98894.00;;;8.01;92.03
5905;BME280;2978;42.012;24.880;2023-03-04T06:43:04;98888.00;;;8.04;91.40
5905;BME280;2978;42.012;24.880;2023-03-04T06:45:29;98892.47;;;8.10;90.98
5905;BME280;2978;42.012;24.880;2023-03-04T06:47:54;98887.56;;;8.12;91.00
5905;BME280;2978;42.012;24.880;2023-03-04T06:50:20;98893.75;;;8.24;90.51
5905;BME280;2978;42.012;24.880;2023-03-04T06:52:45;98900.19;;;8.35;90.15
5905;BME280;2978;42.012;24.880;2023-03-04T06:55:12;98890.03;;;8.35;89.86
5905;BME280;2978;42.012;24.880;2023-03-04T06:57:38;98897.06;;;8.53;89.17
5905;BME280;2978;42.012;24.880;2023-03-04T07:00:04;98899.13;;;8.67;89.14
